Time;durP1;ratioP1;P1;durP2;ratioP2;P2;SDS_P1;SDS_P2;PMS_P1;PMS_P2;Temp;Humidity;BMP_temperature;BMP_pressure;BME280_temperature;BME280_humidity;BME280_pressure;Samples;Min_cycle;Max_cycle;Signal;HPM_P1;HPM_P2
2021/12/19 00:17:51;;;;;;;5.60;5.10;;;;;;;2.88;91.35;99793.13;421154;1318;141209;-63
2021/12/19 00:27:57;;;;;;;8.10;5.40;;;;;;;2.89;91.55;99777.02;431093;1318;140921;-67
2021/12/19 00:38:03;;;;;;;4.80;4.40;;;;;;;2.91;91.61;99767.98;423943;1319;141651;-66
2021/12/19 00:48:10;;;;;;;4.70;3.90;;;;;;;2.93;91.57;99765.30;431028;1319;141846;-65
2021/12/19 00:58:17;;;;;;;3.40;3.10;;;;;;;2.92;91.46;99772.60;432714;1318;141717;-66
2021/12/19 01:08:23;;;;;;;3.80;3.30;;;;;;;2.91;91.13;99747.73;428587;1318;140935;-66
2021/12/19 01:18:30;;;;;;;4.10;3.40;;;;;;;2.88;91.15;99726.38;426215;1317;141513;-66
2021/12/19 01:28:36;;;;;;;5.20;3.70;;;;;;;2.83;90.98;99699.90;432675;1316;141417;-66
2021/12/19 01:38:41;;;;;;;5.20;3.30;;;;;;;2.80;90.88;99682.51;432094;1318;141555;-66
2021/12/19 01:48:47;;;;;;;3.20;2.50;;;;;;;2.81;90.88;99666.95;415035;1320;140935;-65
2021/12/19 01:58:53;;;;;;;2.60;2.30;;;;;;;2.80;90.84;99638.08;415325;1318;141643;-66
2021/12/19 02:09:05;;;;;;;5.00;3.30;;;;;;;2.78;90.99;99603.20;420447;1318;141688;-64
2021/12/19 02:19:12;;;;;;;3.10;2.90;;;;;;;2.80;91.17;99576.02;425043;1318;140791;-66
2021/12/19 02:29:19;;;;;;;2.90;2.70;;;;;;;2.84;91.38;99535.98;416886;1318;142053;-66
2021/12/19 02:39:52;;;;;;;2.90;2.60;;;;;;;2.89;91.46;99510.89;416374;1319;141207;-67
2021/12/19 02:50:00;;;;;;;3.10;2.70;;;;;;;2.99;91.56;99485.50;416184;1318;140980;-60
2021/12/19 03:00:11;;;;;;;9.20;3.40;;;;;;;3.07;91.78;99462.73;431879;1316;141507;-61
2021/12/19 03:10:51;;;;;;;3.40;3.10;;;;;;;3.17;91.94;99453.70;430692;1319;141019;-61
2021/12/19 03:20:54;;;;;;;3.70;3.40;;;;;;;3.27;92.02;99442.13;432680;1318;143078;-59
2021/12/19 03:31:02;;;;;;;4.60;3.80;;;;;;;3.33;92.08;99429.63;426479;1318;215408;-59
2021/12/19 03:41:16;;;;;;;4.10;3.70;;;;;;;3.37;91.97;99401.13;432684;1317;141068;-60
2021/12/19 03:51:22;;;;;;;4.70;3.80;;;;;;;3.41;92.18;99384.34;416434;1318;141305;-64
2021/12/19 04:01:28;;;;;;;4.90;4.30;;;;;;;3.43;92.33;99360.21;417430;1318;141054;-61
2021/12/19 04:11:34;;;;;;;4.80;4.30;;;;;;;3.48;92.47;99354.34;417318;1318;141026;-61
2021/12/19 04:21:40;;;;;;;6.20;5.60;;;;;;;3.51;92.51;99348.16;416432;1318;140935;-62
2021/12/19 04:31:46;;;;;;;5.90;4.20;;;;;;;3.55;92.48;99331.71;432718;1318;141046;-63
2021/12/19 04:53:01;;;;;;;7.20;6.20;;;;;;;3.72;92.48;99321.88;418909;1354;601126;-63
2021/12/19 05:03:15;;;;;;;;;;;;;;;3.79;92.13;99310.70;430112;1316;287626;-62
2021/12/19 05:34:11;;;;;;;9.60;5.50;;;;;;;3.86;91.14;99264.89;417297;1317;140021;-61
2021/12/19 05:54:37;;;;;;;8.10;4.70;;;;;;;3.83;90.27;99255.50;432712;1315;139627;-62
2021/12/19 06:04:43;;;;;;;8.50;4.40;;;;;;;3.84;90.47;99267.75;433544;1316;139157;-62
2021/12/19 06:14:49;;;;;;;5.10;3.40;;;;;;;3.83;90.44;99284.75;432199;1308;139877;-62
2021/12/19 06:24:55;;;;;;;5.90;3.60;;;;;;;3.79;90.38;99267.27;433833;1311;139025;-62
2021/12/19 06:35:06;;;;;;;4.30;3.10;;;;;;;3.71;90.94;99273.08;431369;1316;140460;-62
2021/12/19 06:45:13;;;;;;;3.70;3.00;;;;;;;3.62;90.81;99273.81;418005;1314;139680;-61
2021/12/19 06:55:20;;;;;;;4.50;2.50;;;;;;;3.56;91.38;99265.06;429684;1313;140387;-62
2021/12/19 07:05:26;;;;;;;5.90;2.90;;;;;;;3.53;91.31;99260.17;420954;1306;139955;-60
2021/12/19 07:15:32;;;;;;;5.10;3.60;;;;;;;3.52;91.43;99254.13;420044;1306;139669;-62
2021/12/19 07:25:41;;;;;;;3.50;3.00;;;;;;;3.47;91.78;99258.30;420193;1309;140216;-62
2021/12/19 07:35:49;;;;;;;3.10;2.40;;;;;;;3.47;91.96;99251.06;424519;1312;139805;-61
2021/12/19 07:45:59;;;;;;;5.10;2.30;;;;;;;3.47;91.70;99250.02;433254;1312;139631;-62
2021/12/19 07:56:05;;;;;;;3.80;3.50;;;;;;;3.48;91.74;99244.41;432881;1311;140293;-63
2021/12/19 08:06:11;;;;;;;2.70;2.20;;;;;;;3.52;91.75;99228.02;434334;1310;140445;-63
2021/12/19 08:16:17;;;;;;;4.70;2.30;;;;;;;3.55;91.57;99221.13;434921;1311;140503;-63
2021/12/19 08:26:23;;;;;;;3.30;2.60;;;;;;;3.57;91.49;99224.69;434901;1309;140759;-62
2021/12/19 08:36:29;;;;;;;2.70;2.20;;;;;;;3.53;91.86;99217.05;434237;1311;140519;-63
2021/12/19 08:46:37;;;;;;;3.60;3.10;;;;;;;3.60;91.63;99210.03;427419;1310;140497;-62
2021/12/19 08:56:44;;;;;;;5.50;2.40;;;;;;;3.67;91.76;99203.15;434799;1311;141814;-63
2021/12/19 09:06:50;;;;;;;2.60;2.40;;;;;;;3.71;91.33;99201.95;434178;1311;140093;-62
2021/12/19 09:16:56;;;;;;;4.80;2.60;;;;;;;3.73;91.17;99205.84;434951;1311;141589;-62
2021/12/19 09:27:03;;;;;;;4.10;2.70;;;;;;;3.78;91.07;99198.02;434202;1311;141557;-61
2021/12/19 09:37:09;;;;;;;4.20;2.30;;;;;;;3.77;90.76;99203.10;434416;1306;196544;-63
2021/12/19 09:47:15;;;;;;;3.90;2.90;;;;;;;3.77;90.64;99188.69;434964;1311;141778;-63
2021/12/19 09:57:21;;;;;;;4.10;3.00;;;;;;;3.84;90.69;99164.71;428044;1311;141748;-62
2021/12/19 10:07:29;;;;;;;4.50;3.00;;;;;;;3.89;90.34;99145.59;434646;1311;140821;-62
2021/12/19 10:17:35;;;;;;;7.40;3.10;;;;;;;4.09;90.37;99123.61;428960;1309;141087;-61
2021/12/19 10:27:43;;;;;;;4.70;2.60;;;;;;;4.16;89.93;99105.30;434179;1311;140990;-62
2021/12/19 10:37:50;;;;;;;5.10;3.30;;;;;;;4.21;89.74;99091.20;433910;1310;141115;-61
2021/12/19 10:48:11;;;;;;;6.30;2.90;;;;;;;4.40;89.45;99074.54;432379;1311;140120;-59
2021/12/19 10:58:39;;;;;;;5.50;3.40;;;;;;;4.47;89.15;99060.69;433556;1311;195788;-67
2021/12/19 11:08:46;;;;;;;4.90;3.50;;;;;;;4.51;89.03;99051.18;425277;1311;141264;-68
2021/12/19 11:18:52;;;;;;;6.50;2.50;;;;;;;4.53;88.52;99036.71;430432;1310;140784;-69
2021/12/19 11:29:00;;;;;;;5.30;3.00;;;;;;;4.49;88.18;99023.87;419342;1313;140436;-70
2021/12/19 11:39:09;;;;;;;4.70;3.20;;;;;;;4.42;87.74;99014.16;434358;1311;140511;-67
2021/12/19 11:49:21;;;;;;;4.80;2.90;;;;;;;4.39;87.60;99008.06;432605;1308;140720;-68
2021/12/19 11:59:27;;;;;;;7.90;2.80;;;;;;;4.37;87.28;98996.71;433628;1312;142182;-63
2021/12/19 12:09:39;;;;;;;6.40;2.80;;;;;;;4.38;87.41;98986.27;433281;1311;141716;-63
2021/12/19 12:19:48;;;;;;;5.70;3.20;;;;;;;4.37;87.44;98968.12;434650;1309;141343;-62
2021/12/19 12:29:59;;;;;;;6.90;2.90;;;;;;;4.36;87.19;98952.58;433950;1311;141513;-61
2021/12/19 12:40:24;;;;;;;4.40;2.60;;;;;;;4.33;86.87;98925.84;435052;1310;140706;-62
2021/12/19 12:50:30;;;;;;;6.20;3.30;;;;;;;4.32;86.52;98912.58;426539;1313;141519;-64
2021/12/19 13:00:36;;;;;;;5.00;3.00;;;;;;;4.30;86.21;98905.06;417821;1312;173642;-62
2021/12/19 13:10:42;;;;;;;4.40;2.20;;;;;;;4.23;86.03;98892.03;433865;1312;141327;-63
2021/12/19 13:20:48;;;;;;;3.70;2.30;;;;;;;4.20;85.75;98893.05;433917;1312;140905;-62
2021/12/19 13:30:55;;;;;;;3.70;2.70;;;;;;;4.19;85.61;98880.77;434450;1311;140533;-63
2021/12/19 13:41:01;;;;;;;;;;;;;;;4.18;85.76;98870.43;433436;1312;141458;-63
2021/12/19 13:51:12;;;;;;;5.40;2.80;;;;;;;4.15;85.51;98858.66;433150;1308;128286;-61
2021/12/19 14:01:22;;;;;;;6.40;2.70;;;;;;;4.11;85.30;98852.08;433479;1311;141275;-64
2021/12/19 14:11:29;;;;;;;7.60;3.10;;;;;;;4.06;85.13;98854.39;435002;1311;141362;-64
2021/12/19 14:21:38;;;;;;;6.30;2.60;;;;;;;3.95;85.37;98848.00;434158;1311;141566;-62
2021/12/19 14:31:51;;;;;;;5.50;2.80;;;;;;;3.86;86.06;98839.61;433972;1311;140259;-63
2021/12/19 14:42:13;;;;;;;9.90;4.00;;;;;;;3.73;86.74;98835.37;434582;1312;141330;-61
2021/12/19 14:52:28;;;;;;;5.50;2.60;;;;;;;3.61;87.24;98828.50;434750;1310;141132;-62
2021/12/19 15:02:34;;;;;;;5.50;2.50;;;;;;;3.49;87.26;98823.15;434144;1311;141637;-62
2021/12/19 15:12:40;;;;;;;2.80;2.50;;;;;;;3.45;87.72;98815.89;433335;1311;140763;-62
2021/12/19 15:22:46;;;;;;;6.00;3.60;;;;;;;3.38;87.63;98833.38;434132;1314;140892;-63
2021/12/19 15:32:54;;;;;;;2.40;1.60;;;;;;;3.26;87.89;98842.06;432225;1311;141461;-63
2021/12/19 15:43:01;;;;;;;1.30;0.60;;;;;;;3.01;86.33;98857.35;434839;1311;140628;-62
2021/12/19 15:53:07;;;;;;;0.70;0.60;;;;;;;2.75;85.93;98850.88;435290;1311;140802;-63
2021/12/19 16:03:13;;;;;;;2.50;0.80;;;;;;;2.60;85.41;98834.73;428756;1312;141242;-62
2021/12/19 16:13:21;;;;;;;2.50;1.40;;;;;;;2.44;84.88;98801.41;422939;1304;141157;-62
2021/12/19 16:23:27;;;;;;;1.60;1.30;;;;;;;2.24;85.09;98796.05;435082;1312;140463;-62
2021/12/19 16:33:33;;;;;;;3.20;2.10;;;;;;;2.15;85.59;98806.78;428732;1311;141066;-63
2021/12/19 16:43:40;;;;;;;3.40;2.30;;;;;;;2.09;85.95;98813.93;435136;1312;141981;-62
2021/12/19 16:53:46;;;;;;;4.70;3.20;;;;;;;1.91;86.18;98845.39;434694;1312;140503;-63
2021/12/19 17:03:52;;;;;;;4.50;2.70;;;;;;;1.65;86.41;98867.45;420252;1309;140503;-62
2021/12/19 17:14:09;;;;;;;2.80;1.80;;;;;;;1.47;86.42;98872.60;425738;1311;141585;-62
2021/12/19 17:24:15;;;;;;;2.80;1.60;;;;;;;1.32;86.20;98892.50;424287;1311;141079;-62
2021/12/19 17:34:22;;;;;;;5.60;2.70;;;;;;;1.20;86.03;98904.65;433342;1306;140561;-62
2021/12/19 17:44:27;;;;;;;3.70;2.70;;;;;;;1.08;85.75;98903.89;433955;1316;141577;-62
2021/12/19 17:54:34;;;;;;;4.30;2.10;;;;;;;0.92;85.45;98915.11;434459;1316;140828;-63
2021/12/19 18:04:41;;;;;;;4.60;2.80;;;;;;;0.79;85.56;98924.02;435030;1314;140712;-64
2021/12/19 18:14:46;;;;;;;;;;;;;;;0.73;85.34;98945.95;435127;1311;140124;-64
2021/12/19 18:24:52;;;;;;;4.90;2.60;;;;;;;0.59;85.29;98947.60;434722;1313;128964;-64
2021/12/19 18:34:59;;;;;;;7.40;3.20;;;;;;;0.45;85.08;98963.54;435176;1315;141503;-63
2021/12/19 18:45:13;;;;;;;5.00;2.80;;;;;;;0.31;85.20;98972.59;434186;1311;141773;-64
2021/12/19 18:55:25;;;;;;;6.00;3.30;;;;;;;0.24;85.47;98984.03;434241;1311;141041;-64
2021/12/19 19:05:34;;;;;;;9.10;3.30;;;;;;;0.26;85.44;98989.45;433976;1310;141765;-69
2021/12/19 19:15:40;;;;;;;5.50;3.30;;;;;;;0.22;85.34;98992.69;424525;1311;140921;-64
2021/12/19 19:25:46;;;;;;;7.80;3.70;;;;;;;0.12;85.17;98996.63;419528;1311;140003;-63
2021/12/19 19:35:53;;;;;;;7.00;3.10;;;;;;;0.11;85.16;99002.66;420700;1313;141069;-70
2021/12/19 19:56:23;;;;;;;5.00;3.40;;;;;;;-0.26;84.91;99015.63;434893;1308;140406;-73
2021/12/19 20:06:42;;;;;;;5.50;2.50;;;;;;;-0.39;84.89;99026.14;429181;1310;141878;-68
2021/12/19 20:16:51;;;;;;;6.20;3.50;;;;;;;-0.49;84.96;99035.70;430437;1311;141121;-72
2021/12/19 20:26:57;;;;;;;12.50;4.20;;;;;;;-0.58;85.27;99035.94;420517;1309;141137;-70
2021/12/19 20:37:04;;;;;;;5.40;3.80;;;;;;;-0.67;85.43;99037.91;421600;1311;140548;-71
2021/12/19 20:47:11;;;;;;;3.70;3.20;;;;;;;-0.79;85.55;99038.90;434385;1311;141524;-69
2021/12/19 20:57:17;;;;;;;8.20;3.70;;;;;;;-0.86;85.69;99045.77;434430;1311;142150;-67
2021/12/19 21:07:22;;;;;;;6.70;2.80;;;;;;;-0.72;85.93;99056.08;435049;1310;265981;-67
2021/12/19 21:27:52;;;;;;;6.00;3.50;;;;;;;-0.35;85.06;99077.11;434199;1311;141606;-73
2021/12/19 21:48:22;;;;;;;7.00;3.70;;;;;;;-0.26;84.59;99091.65;418608;1311;140440;-67
2021/12/19 21:58:28;;;;;;;7.00;3.70;;;;;;;-0.25;84.29;99098.16;429459;1309;141959;-66
2021/12/19 22:08:35;;;;;;;7.40;3.50;;;;;;;-0.25;84.08;99099.03;433310;1311;141344;-64
2021/12/19 22:18:45;;;;;;;7.00;2.80;;;;;;;-0.27;83.68;99094.62;433538;1311;141472;-68
2021/12/19 22:28:51;;;;;;;4.70;2.90;;;;;;;-0.26;83.45;99098.73;434915;1311;142210;-66
2021/12/19 22:38:58;;;;;;;4.20;2.20;;;;;;;-0.35;83.35;99086.92;434517;1308;162466;-64
2021/12/19 22:49:06;;;;;;;2.30;2.00;;;;;;;-0.54;83.14;99084.48;434057;1311;141074;-66
2021/12/19 22:59:12;;;;;;;3.10;2.00;;;;;;;-0.78;83.16;99083.22;427970;1310;142243;-67
2021/12/19 23:09:19;;;;;;;5.10;2.20;;;;;;;-1.05;83.26;99090.08;426315;1311;142073;-66
2021/12/19 23:19:24;;;;;;;3.10;2.20;;;;;;;-1.28;83.68;99093.20;426059;1309;141411;-65
2021/12/19 23:29:30;;;;;;;5.40;2.70;;;;;;;-1.32;84.18;99101.52;431541;1309;141226;-65
2021/12/19 23:39:55;;;;;;;5.50;2.90;;;;;;;-1.13;84.19;99104.88;430689;1311;141002;-63
2021/12/19 23:50:03;;;;;;;4.80;2.80;;;;;;;-0.97;84.49;99100.70;434670;1311;141973;-64
